PWSweather.com
Personal Weather Stations
Station Observations
KILDUNLA3
Devonshire, Dunlap, IL 61525

DevonshireDunlap, IL 61525

Lat: 40.82881546, Lon: -89.62155914

Elevation: 758

Station Type: Oregon Scientific WMR100

http://jimroal.com

Latest ConditionsUpdated 2:07:42 AM CDT Tuesday, Jun 27, 2017
Currently Today's Max Today's Min Today's Average
Temperature 51.2°F10.7°C 54.4°F12.4°C 51.2°F10.7°C 52.9°F11.6°C
Dew Point 50.7°F10.4°C 54.2°F12.3°C 50.7°F10.4°C 52.6°F11.4°C
Winds Calm Calm Calm WNWCalm WNW - Calm Calm
Wind Gusts -- -- - -
Humidity 98% 99% 98% 99%
Pressure 30.07 in1018.3 mb 30.07 in1018.3 mb 30.07 in1018.3 mb -
Hour Temp Dew Point Humidity Winds Wind Gusts Pressure Precip Precip Rate Daily Precip Total
02:07 AM 51.2°F10.7°C 50.7°F10.4°C 98% Calm Calm -- 30.07 in1018.3 mb 0.00 in0.0 mm 0.00 in0.0 mm 0.00 in0.0 mm
02:02 AM 51.4°F10.8°C 51.3°F10.7°C 99% Calm Calm -- 30.07 in1018.3 mb 0.00 in0.0 mm 0.00 in0.0 mm 0.00 in0.0 mm
01:57 AM 51.6°F10.9°C 51.4°F10.8°C 99% Calm Calm -- 30.07 in1018.3 mb 0.00 in0.0 mm 0.00 in0.0 mm 0.00 in0.0 mm
01:52 AM 51.6°F10.9°C 51.4°F10.8°C 99% Calm Calm -- 30.07 in1018.3 mb 0.00 in0.0 mm 0.00 in0.0 mm 0.00 in0.0 mm
01:47 AM 51.8°F11.0°C 51.4°F10.8°C 98% Calm Calm -- 30.07 in1018.3 mb 0.00 in0.0 mm 0.00 in0.0 mm 0.00 in0.0 mm
01:42 AM 51.8°F11.0°C 51.4°F10.8°C 98% Calm Calm -- 30.07 in1018.3 mb 0.00 in0.0 mm 0.00 in0.0 mm 0.00 in0.0 mm
01:37 AM 52.0°F11.1°C 51.7°F10.9°C 99% Calm Calm -- 30.07 in1018.3 mb 0.00 in0.0 mm 0.00 in0.0 mm 0.00 in0.0 mm
01:32 AM 52.1°F11.2°C 51.6°F10.9°C 98% Calm Calm -- 30.07 in1018.3 mb 0.00 in0.0 mm 0.00 in0.0 mm 0.00 in0.0 mm
01:27 AM 52.3°F11.3°C 51.8°F11.0°C 98% Calm Calm -- 30.07 in1018.3 mb 0.00 in0.0 mm 0.00 in0.0 mm 0.00 in0.0 mm
01:22 AM 52.3°F11.3°C 52.0°F11.1°C 99% Calm Calm -- 30.07 in1018.3 mb 0.00 in0.0 mm 0.00 in0.0 mm 0.00 in0.0 mm
01:17 AM 52.5°F11.4°C 52.1°F11.2°C 98% Calm Calm -- 30.07 in1018.3 mb 0.00 in0.0 mm 0.00 in0.0 mm 0.00 in0.0 mm
01:12 AM 52.6°F11.4°C 52.1°F11.2°C 98% Calm Calm -- 30.07 in1018.3 mb 0.00 in0.0 mm 0.00 in0.0 mm 0.00 in0.0 mm
01:07 AM 52.8°F11.6°C 52.5°F11.4°C 99% Calm Calm -- 30.07 in1018.3 mb 0.00 in0.0 mm 0.00 in0.0 mm 0.00 in0.0 mm
01:02 AM 53.0°F11.7°C 52.8°F11.6°C 99% Calm Calm -- 30.07 in1018.3 mb 0.00 in0.0 mm 0.00 in0.0 mm 0.00 in0.0 mm
12:57 AM 53.1°F11.7°C 52.9°F11.6°C 99% Calm Calm -- 30.07 in1018.3 mb 0.00 in0.0 mm 0.00 in0.0 mm 0.00 in0.0 mm
12:52 AM 53.2°F11.8°C 53.1°F11.7°C 99% Calm Calm -- 30.07 in1018.3 mb 0.00 in0.0 mm 0.00 in0.0 mm 0.00 in0.0 mm
12:47 AM 53.3°F11.8°C 53.2°F11.8°C 99% Calm Calm -- 30.07 in1018.3 mb 0.00 in0.0 mm 0.00 in0.0 mm 0.00 in0.0 mm
12:42 AM 53.5°F11.9°C 53.3°F11.8°C 99% Calm Calm -- 30.07 in1018.3 mb 0.00 in0.0 mm 0.00 in0.0 mm 0.00 in0.0 mm
12:37 AM 53.6°F12.0°C 53.4°F11.9°C 99% Calm Calm -- 30.07 in1018.3 mb 0.00 in0.0 mm 0.00 in0.0 mm 0.00 in0.0 mm
12:32 AM 53.7°F12.1°C 53.4°F11.9°C 99% Calm Calm -- 30.07 in1018.3 mb 0.00 in0.0 mm 0.00 in0.0 mm 0.00 in0.0 mm
12:27 AM 53.8°F12.1°C 53.4°F11.9°C 99% Calm Calm -- 30.07 in1018.3 mb 0.00 in0.0 mm 0.00 in0.0 mm 0.00 in0.0 mm
12:22 AM 53.9°F12.2°C 53.6°F12.0°C 99% Calm Calm -- 30.07 in1018.3 mb 0.00 in0.0 mm 0.00 in0.0 mm 0.00 in0.0 mm
12:17 AM 54.1°F12.3°C 54.0°F12.2°C 99% Calm Calm -- 30.07 in1018.3 mb 0.00 in0.0 mm 0.00 in0.0 mm 0.00 in0.0 mm
12:12 AM 54.3°F12.4°C 54.1°F12.3°C 99% Calm Calm -- 30.07 in1018.3 mb 0.00 in0.0 mm 0.00 in0.0 mm 0.00 in0.0 mm
12:07 AM 54.3°F12.4°C 54.1°F12.3°C 99% Calm Calm -- 30.07 in1018.3 mb 0.00 in0.0 mm 0.00 in0.0 mm 0.00 in0.0 mm
12:02 AM 54.4°F12.4°C 54.2°F12.3°C 99% Calm Calm -- 30.07 in1018.3 mb 0.00 in0.0 mm 0.00 in0.0 mm 0.00 in0.0 mm